Maasbracht, Netherlands
Current Conditions -  °F | °C
As of 8:50 PM on Thursday 18 Dec 2014 (Local Time) from ETNG Reporting Station
Drizzle Drizzle  
Wind Chill: 54°   Ceiling: 1400
Heat Index: 54°   Visibility: 1.8mi
Dew Point: 50°   Wind: 21mph
Humidity: 88%   Direction: 240°WSW
Pressure: 29.91"   Gusts: 36mph
Location:  51.14°N, 5.89°E
Report Text: ETNG 181950Z 24018G31KT 3000 DZ SCT010 BKN014 12/10 Q1013 TEMPO BKN010
Loading
Personal Weather Stations






























Interactive Weather Map New forecast layout! Learn more

10-Day Weather Forecast

Advertisements
Track Severe Weather on mobile